Amity, Maine
Current Conditions -  °F | °C
As of 3:53 AM on Monday 20 Oct 2014 (Local Time) from KHUL Reporting Station
Overcast Overcast  
Wind Chill: 31°   Ceiling: 5000
Heat Index: 38°   Visibility: 10mi
Dew Point: 28°   Wind: 9mph
Humidity: 68%   Direction: 290°WNW
Pressure: 29.73"   Gusts: NA
Location:  45.8952°N, 67.8479°W
Report Text: KHUL 200753Z AUTO 29008KT 10SM OVC050 03/M02 A2973 RMK AO2 SLP073 T00331022
Loading
Personal Weather Stations






























Interactive Weather Map
Tropical Storm Tracking
New forecast layout! Learn more

10-Day Weather Forecast

Advertisements
Track Severe Weather on mobile